createdAt,value
2022-10-23T00:01:21.150Z,1.10
2022-10-23T00:03:48.125Z,0.98
2022-10-23T00:06:15.156Z,1.20
2022-10-23T00:08:44.636Z,1.00
2022-10-23T00:11:14.176Z,0.93
2022-10-23T00:13:40.706Z,0.70
2022-10-23T00:16:07.728Z,1.15
2022-10-23T00:18:38.503Z,1.17
2022-10-23T00:21:08.220Z,1.23
2022-10-23T00:23:35.227Z,1.20
2022-10-23T00:26:02.796Z,1.17
2022-10-23T00:28:29.374Z,1.02
2022-10-23T00:30:56.147Z,0.88
2022-10-23T00:33:22.615Z,0.93
2022-10-23T00:35:49.458Z,1.10
2022-10-23T00:38:16.117Z,1.38
2022-10-23T00:40:44.225Z,1.27
2022-10-23T00:43:18.615Z,1.00
2022-10-23T00:45:47.962Z,1.08
2022-10-23T00:48:15.246Z,1.10
2022-10-23T00:50:41.905Z,0.80
2022-10-23T00:53:11.913Z,1.10
2022-10-23T00:55:46.860Z,1.60
2022-10-23T00:58:16.850Z,1.30
2022-10-23T01:00:55.228Z,1.10
2022-10-23T01:03:27.734Z,0.77
2022-10-23T01:06:03.279Z,1.17
2022-10-23T01:08:42.561Z,0.65
2022-10-23T01:11:17.549Z,1.20
2022-10-23T01:14:10.739Z,1.13
2022-10-23T01:16:46.198Z,1.10
2022-10-23T01:19:37.273Z,1.30
2022-10-23T01:22:31.336Z,0.98
2022-10-23T01:25:03.146Z,0.68
2022-10-23T01:27:41.873Z,1.00
2022-10-23T01:32:49.424Z,0.93
2022-10-23T01:35:34.099Z,0.60
2022-10-23T01:38:10.894Z,1.00
2022-10-23T01:40:50.370Z,1.00
2022-10-23T01:43:25.181Z,0.88
2022-10-23T01:45:57.719Z,1.23
2022-10-23T01:48:29.058Z,1.25
2022-10-23T01:50:59.598Z,0.63
2022-10-23T01:53:31.153Z,0.75
2022-10-23T01:56:00.741Z,1.20
2022-10-23T01:58:32.517Z,0.57
2022-10-23T02:01:03.005Z,0.75
2022-10-23T02:03:32.872Z,0.70
2022-10-23T02:06:02.889Z,1.10
2022-10-23T02:08:29.316Z,1.42
2022-10-23T02:11:22.393Z,1.00
2022-10-23T02:14:01.803Z,1.00
2022-10-23T02:16:37.181Z,1.35
2022-10-23T02:19:20.457Z,0.80
2022-10-23T02:21:50.509Z,0.68
2022-10-23T02:24:29.158Z,1.20
2022-10-23T02:27:01.064Z,0.95
2022-10-23T02:29:41.459Z,1.10
2022-10-23T02:32:13.083Z,1.10
2022-10-23T02:34:39.650Z,0.93
2022-10-23T02:37:06.610Z,0.88
2022-10-23T02:39:33.054Z,0.90
2022-10-23T02:42:14.949Z,0.68
2022-10-23T02:45:15.232Z,1.25
2022-10-23T02:48:01.570Z,0.75
2022-10-23T02:50:51.152Z,0.80
2022-10-23T02:53:44.590Z,0.75
2022-10-23T02:56:33.461Z,1.08
2022-10-23T02:59:02.029Z,0.73
2022-10-23T03:02:00.712Z,0.73
2022-10-23T03:04:28.349Z,0.90
2022-10-23T03:06:55.536Z,0.88
2022-10-23T03:09:22.457Z,1.20
2022-10-23T03:11:50.209Z,0.77
2022-10-23T03:14:17.061Z,1.20
2022-10-23T03:16:43.534Z,0.77
2022-10-23T03:21:43.237Z,0.90
2022-10-23T03:24:09.999Z,0.98
2022-10-23T03:26:36.408Z,1.20
2022-10-23T03:29:12.184Z,1.15
2022-10-23T03:31:38.674Z,1.00
2022-10-23T03:34:09.955Z,1.08
2022-10-23T03:36:36.779Z,1.45
2022-10-23T03:39:04.230Z,1.10
2022-10-23T03:41:32.534Z,1.40
2022-10-23T03:43:59.071Z,0.65
2022-10-23T03:46:25.677Z,1.10
2022-10-23T03:48:55.957Z,0.93
2022-10-23T03:51:22.682Z,1.25
2022-10-23T03:53:49.293Z,1.00
2022-10-23T03:56:15.962Z,0.80
2022-10-23T03:58:43.549Z,1.35
2022-10-23T04:01:10.198Z,1.00
2022-10-23T04:03:39.199Z,0.77
2022-10-23T04:06:05.800Z,0.90
2022-10-23T04:08:32.232Z,1.08
2022-10-23T04:10:58.681Z,1.00
2022-10-23T04:13:25.124Z,1.10
2022-10-23T04:15:54.567Z,0.73
2022-10-23T04:18:20.984Z,1.23
2022-10-23T04:20:49.135Z,1.30
2022-10-23T04:23:16.215Z,0.70
2022-10-23T04:25:42.707Z,1.10
2022-10-23T04:28:09.217Z,1.23
2022-10-23T04:30:35.937Z,0.90
2022-10-23T04:33:05.784Z,1.17
2022-10-23T04:35:32.329Z,1.27
2022-10-23T04:38:06.078Z,1.00
2022-10-23T04:40:33.316Z,1.30
2022-10-23T04:42:59.714Z,1.27
2022-10-23T04:45:26.925Z,1.42
2022-10-23T04:47:53.505Z,1.15
2022-10-23T04:50:20.926Z,1.10
2022-10-23T04:52:47.397Z,0.60
2022-10-23T04:55:17.051Z,0.65
2022-10-23T04:57:44.068Z,0.93
2022-10-23T05:00:46.384Z,0.90
2022-10-23T05:03:13.729Z,1.05
2022-10-23T05:05:42.712Z,0.98
2022-10-23T05:08:10.475Z,0.95
2022-10-23T05:10:38.438Z,1.10
2022-10-23T05:13:05.652Z,0.80
2022-10-23T05:15:33.351Z,1.05
2022-10-23T05:18:11.622Z,0.70
2022-10-23T05:20:40.029Z,0.75
2022-10-23T05:23:12.930Z,0.82
2022-10-23T05:25:39.336Z,0.68
2022-10-23T05:28:07.148Z,0.63
2022-10-23T05:30:34.175Z,1.10
2022-10-23T05:33:02.392Z,0.50
2022-10-23T05:35:32.289Z,1.05
2022-10-23T05:38:02.367Z,0.93
2022-10-23T05:40:29.013Z,0.98
2022-10-23T05:42:55.760Z,0.60
2022-10-23T05:45:27.537Z,0.90
2022-10-23T05:47:56.526Z,1.40
2022-10-23T05:50:25.733Z,0.63
2022-10-23T05:52:54.905Z,1.05
2022-10-23T05:55:21.501Z,1.50
2022-10-23T05:57:47.924Z,1.00
2022-10-23T06:00:14.483Z,0.85
2022-10-23T06:02:41.096Z,1.15
2022-10-23T06:05:07.898Z,1.30
2022-10-23T06:07:35.922Z,0.68
2022-10-23T06:10:04.029Z,0.82
2022-10-23T06:12:31.831Z,0.98
2022-10-23T06:14:58.245Z,0.75
2022-10-23T06:17:31.008Z,1.13
2022-10-23T06:20:03.948Z,1.20
2022-10-23T06:22:32.678Z,0.85
2022-10-23T06:24:59.088Z,0.73
2022-10-23T06:27:25.703Z,0.85
2022-10-23T06:29:52.183Z,0.73
2022-10-23T06:32:19.425Z,1.17
2022-10-23T06:34:48.239Z,1.30
2022-10-23T06:37:14.689Z,0.90
2022-10-23T06:39:41.135Z,1.50
2022-10-23T06:42:07.722Z,1.10
2022-10-23T06:44:36.097Z,1.27
2022-10-23T06:47:06.836Z,1.20
2022-10-23T06:49:33.266Z,1.08
2022-10-23T06:51:59.771Z,1.20
2022-10-23T06:54:26.230Z,0.82
2022-10-23T06:56:53.316Z,1.10
2022-10-23T06:59:22.210Z,0.85
2022-10-23T07:01:48.840Z,0.95
2022-10-23T07:04:15.600Z,1.10
2022-10-23T07:06:42.673Z,1.23
2022-10-23T07:09:09.351Z,1.45
2022-10-23T07:11:36.762Z,1.13
2022-10-23T07:14:03.309Z,1.15
2022-10-23T07:16:30.069Z,1.30
2022-10-23T07:19:00.960Z,1.00
2022-10-23T07:21:39.353Z,0.80
2022-10-23T07:24:06.006Z,1.02
2022-10-23T07:26:32.933Z,1.15
2022-10-23T07:29:01.326Z,1.13
2022-10-23T07:31:30.287Z,1.27
2022-10-23T07:33:56.831Z,0.90
2022-10-23T07:36:23.372Z,1.40
2022-10-23T07:38:52.608Z,1.38
2022-10-23T07:41:19.296Z,1.27
2022-10-23T07:43:47.327Z,1.00
2022-10-23T07:46:13.799Z,1.30
2022-10-23T07:48:40.785Z,1.45
2022-10-23T07:51:14.287Z,1.00
2022-10-23T07:53:44.673Z,0.90
2022-10-23T07:56:24.343Z,1.02
2022-10-23T07:58:54.903Z,1.20
2022-10-23T08:01:48.189Z,1.90
2022-10-23T08:04:19.158Z,1.92
2022-10-23T08:06:45.761Z,1.42
2022-10-23T08:09:12.227Z,1.75
2022-10-23T08:11:42.339Z,1.48
2022-10-23T08:14:12.317Z,1.80
2022-10-23T08:16:39.487Z,2.20
2022-10-23T08:19:07.413Z,2.00
2022-10-23T08:21:33.914Z,1.25
2022-10-23T08:24:01.122Z,1.50
2022-10-23T08:26:30.603Z,1.60
2022-10-23T08:29:00.484Z,1.50
2022-10-23T08:31:27.741Z,1.75
2022-10-23T08:33:54.328Z,1.95
2022-10-23T08:36:29.974Z,2.00
2022-10-23T08:38:57.987Z,2.28
2022-10-23T08:41:49.018Z,2.20
2022-10-23T08:44:24.278Z,2.17
2022-10-23T08:47:10.605Z,2.08
2022-10-23T08:49:47.763Z,2.65
2022-10-23T08:52:42.624Z,2.67
2022-10-23T08:55:32.078Z,1.55
2022-10-23T08:58:06.812Z,1.40
2022-10-23T09:00:33.833Z,1.77
2022-10-23T09:03:05.590Z,1.23
2022-10-23T09:05:39.783Z,1.13
2022-10-23T09:08:43.545Z,2.08
2022-10-23T09:13:53.577Z,1.98
2022-10-23T09:16:30.181Z,1.80
2022-10-23T09:19:02.144Z,1.75
2022-10-23T09:21:32.123Z,1.52
2022-10-23T09:23:58.550Z,1.67
2022-10-23T09:26:25.135Z,1.98
2022-10-23T09:28:57.121Z,1.67
2022-10-23T09:31:23.577Z,2.03
2022-10-23T09:34:00.029Z,1.90
2022-10-23T09:36:29.201Z,1.80
2022-10-23T09:39:01.606Z,1.27
2022-10-23T09:41:30.208Z,1.70
2022-10-23T09:44:01.835Z,1.70
2022-10-23T09:46:38.692Z,1.83
2022-10-23T09:49:05.969Z,1.40
2022-10-23T09:51:32.450Z,1.73
2022-10-23T09:54:00.489Z,1.60
2022-10-23T09:56:32.902Z,1.95
2022-10-23T09:59:02.744Z,2.25
2022-10-23T10:01:38.474Z,1.83
2022-10-23T10:04:05.034Z,1.92
2022-10-23T10:06:33.840Z,2.05
2022-10-23T10:09:05.419Z,1.67
2022-10-23T10:11:54.810Z,2.15
2022-10-23T10:14:44.013Z,2.20
2022-10-23T10:17:19.312Z,2.40
2022-10-23T10:20:13.756Z,2.53
2022-10-23T10:23:18.249Z,2.70
2022-10-23T10:26:13.192Z,2.60
2022-10-23T10:28:56.762Z,2.40
2022-10-23T10:31:50.722Z,2.22
2022-10-23T10:34:28.702Z,2.10
2022-10-23T10:37:04.517Z,2.28
2022-10-23T10:39:41.097Z,2.10
2022-10-23T10:42:24.396Z,2.22
2022-10-23T10:45:19.666Z,2.80
2022-10-23T10:48:16.227Z,2.13
2022-10-23T10:50:54.858Z,2.15
2022-10-23T10:53:27.166Z,2.40
2022-10-23T10:55:56.749Z,2.50
2022-10-23T10:58:57.996Z,2.95
2022-10-23T11:01:42.806Z,2.53
2022-10-23T11:04:33.564Z,2.70
2022-10-23T11:07:05.420Z,2.80
2022-10-23T11:09:31.942Z,1.95
2022-10-23T11:12:02.888Z,3.45
2022-10-23T11:14:33.033Z,2.15
2022-10-23T11:17:10.436Z,2.88
2022-10-23T11:19:47.703Z,2.38
2022-10-23T11:22:37.471Z,2.72
2022-10-23T11:25:32.252Z,2.58
2022-10-23T11:28:17.452Z,2.13
2022-10-23T11:31:09.527Z,2.55
2022-10-23T11:34:00.007Z,2.55
2022-10-23T11:36:42.784Z,2.28
2022-10-23T11:39:29.859Z,2.67
2022-10-23T11:41:59.781Z,2.42
2022-10-23T11:44:47.558Z,2.55
2022-10-23T11:47:39.541Z,1.88
2022-10-23T11:50:06.893Z,2.47
2022-10-23T11:52:45.682Z,1.77
2022-10-23T11:55:18.954Z,2.75
2022-10-23T11:58:08.042Z,2.60
2022-10-23T12:00:39.841Z,2.13
2022-10-23T12:03:19.002Z,2.30
2022-10-23T12:05:45.739Z,1.85
2022-10-23T12:08:25.558Z,2.35
2022-10-23T12:10:53.132Z,2.25
2022-10-23T12:13:37.714Z,2.65
2022-10-23T12:18:51.593Z,2.20
2022-10-23T12:21:27.958Z,2.08
2022-10-23T12:24:09.135Z,2.05
2022-10-23T12:26:54.480Z,2.45
2022-10-23T12:29:50.813Z,2.40
2022-10-23T12:32:23.099Z,2.08
2022-10-23T12:35:07.282Z,1.70
2022-10-23T12:37:54.683Z,2.83
2022-10-23T12:40:22.047Z,2.60
2022-10-23T12:42:52.057Z,2.22
2022-10-23T12:45:40.588Z,2.30
2022-10-23T12:48:07.049Z,2.30
2022-10-23T12:50:34.339Z,2.47
2022-10-23T12:53:07.651Z,2.78
2022-10-23T12:58:35.138Z,2.40
2022-10-23T13:01:04.576Z,2.63
2022-10-23T13:03:33.632Z,2.17
2022-10-23T13:06:04.715Z,2.72
2022-10-23T13:08:36.995Z,2.10
2022-10-23T13:11:04.863Z,2.53
2022-10-23T13:13:31.386Z,2.50
2022-10-23T13:15:57.886Z,2.72
2022-10-23T13:18:24.390Z,2.10
2022-10-23T13:20:53.628Z,2.15
2022-10-23T13:23:31.368Z,2.33
2022-10-23T13:26:06.920Z,2.10
2022-10-23T13:28:44.536Z,1.92
2022-10-23T13:31:11.514Z,2.08
2022-10-23T13:33:45.473Z,2.40
2022-10-23T13:36:14.733Z,1.83
2022-10-23T13:38:44.164Z,2.00
2022-10-23T13:41:16.751Z,1.83
2022-10-23T13:43:44.576Z,2.15
2022-10-23T13:46:15.920Z,2.35
2022-10-23T13:48:42.570Z,2.42
2022-10-23T13:51:13.751Z,2.53
2022-10-23T13:53:40.243Z,1.98
2022-10-23T13:56:07.053Z,2.20
2022-10-23T13:58:33.512Z,2.35
2022-10-23T14:01:00.240Z,2.75
2022-10-23T14:03:26.750Z,2.40
2022-10-23T14:05:53.738Z,2.20
2022-10-23T14:08:20.162Z,2.38
2022-10-23T14:10:46.656Z,1.85
2022-10-23T14:13:15.411Z,2.35
2022-10-23T14:15:41.839Z,2.78
2022-10-23T14:18:08.582Z,1.92
2022-10-23T14:20:35.104Z,2.08
2022-10-23T14:23:01.537Z,2.22
2022-10-23T14:25:27.997Z,2.22
2022-10-23T14:30:22.406Z,2.33
2022-10-23T14:32:49.977Z,1.92
2022-10-23T14:35:16.484Z,2.40
2022-10-23T14:37:43.194Z,2.47
2022-10-23T14:40:10.311Z,2.08
2022-10-23T14:42:36.821Z,2.10
2022-10-23T14:45:04.496Z,2.40
2022-10-23T14:47:31.710Z,1.73
2022-10-23T14:49:58.114Z,2.22
2022-10-23T14:52:25.426Z,2.03
2022-10-23T14:54:53.488Z,2.15
2022-10-23T14:57:22.275Z,2.22
2022-10-23T14:59:49.518Z,2.13
2022-10-23T15:02:16.886Z,2.45
2022-10-23T15:04:43.593Z,2.38
2022-10-23T15:07:10.107Z,2.47
2022-10-23T15:09:37.400Z,2.42
2022-10-23T15:12:05.066Z,2.00
2022-10-23T15:14:31.974Z,2.05
2022-10-23T15:16:58.488Z,2.10
2022-10-23T15:19:25.758Z,2.42
2022-10-23T15:21:52.545Z,2.20
2022-10-23T15:24:20.816Z,2.00
2022-10-23T15:26:48.626Z,2.25
2022-10-23T15:29:15.498Z,2.00
2022-10-23T15:31:47.518Z,2.35
2022-10-23T15:34:17.458Z,2.38
2022-10-23T15:36:45.001Z,2.00
2022-10-23T15:39:13.747Z,2.60
2022-10-23T15:41:41.899Z,2.13
2022-10-23T15:44:11.332Z,1.95
2022-10-23T15:46:40.528Z,1.95
2022-10-23T15:49:08.567Z,2.13
2022-10-23T15:51:36.815Z,2.30
2022-10-23T15:54:07.889Z,2.10
2022-10-23T15:56:35.252Z,2.05
2022-10-23T15:59:01.738Z,2.50
2022-10-23T16:01:28.550Z,2.70
2022-10-23T16:03:55.782Z,2.35
2022-10-23T16:06:22.637Z,2.10
2022-10-23T16:08:49.133Z,2.50
2022-10-23T16:11:17.423Z,2.38
2022-10-23T16:13:44.065Z,2.00
2022-10-23T16:16:11.914Z,2.50
2022-10-23T16:18:38.600Z,2.42
2022-10-23T16:21:05.700Z,2.33
2022-10-23T16:23:33.353Z,2.13
2022-10-23T16:26:06.334Z,2.38
2022-10-23T16:28:33.161Z,2.33
2022-10-23T16:31:00.313Z,2.67
2022-10-23T16:33:29.261Z,2.20
2022-10-23T16:35:55.719Z,2.30
2022-10-23T16:38:22.325Z,2.40
2022-10-23T16:40:53.482Z,2.22
2022-10-23T16:43:19.940Z,2.15
2022-10-23T16:46:49.826Z,2.65
2022-10-23T16:49:16.306Z,2.80
2022-10-23T16:51:42.791Z,2.15
2022-10-23T16:54:09.755Z,2.55
2022-10-23T16:56:36.283Z,2.05
2022-10-23T16:59:03.037Z,2.33
2022-10-23T17:01:31.867Z,2.25
2022-10-23T17:03:58.965Z,2.28
2022-10-23T17:06:31.040Z,1.83
2022-10-23T17:08:58.804Z,1.67
2022-10-23T17:11:34.435Z,1.67
2022-10-23T17:14:04.171Z,1.70
2022-10-23T17:16:37.863Z,2.15
2022-10-23T17:19:16.056Z,2.10
2022-10-23T17:21:48.150Z,1.50
2022-10-23T17:24:14.606Z,1.77
2022-10-23T17:26:41.551Z,1.45
2022-10-23T17:29:09.522Z,1.65
2022-10-23T17:31:38.298Z,1.63
2022-10-23T17:34:07.551Z,1.45
2022-10-23T17:36:39.720Z,1.55
2022-10-23T17:39:08.715Z,1.55
2022-10-23T17:41:35.792Z,1.65
2022-10-23T17:44:03.329Z,1.60
2022-10-23T17:46:29.963Z,1.80
2022-10-23T17:51:35.547Z,1.67
2022-10-23T17:54:05.768Z,1.70
2022-10-23T17:56:33.505Z,1.50
2022-10-23T17:59:03.466Z,1.65
2022-10-23T18:01:31.098Z,2.30
2022-10-23T18:04:02.048Z,1.60
2022-10-23T18:06:32.151Z,1.63
2022-10-23T18:08:59.948Z,1.63
2022-10-23T18:11:33.156Z,1.70
2022-10-23T18:16:31.619Z,1.92
2022-10-23T18:18:59.800Z,1.83
2022-10-23T18:21:27.700Z,1.80
2022-10-23T18:23:54.504Z,1.80
2022-10-23T18:26:24.724Z,1.58
2022-10-23T18:28:53.619Z,1.30
2022-10-23T18:31:20.668Z,2.53
2022-10-23T18:33:47.705Z,1.67
2022-10-23T18:36:23.603Z,1.65
2022-10-23T18:38:51.016Z,2.10
2022-10-23T18:41:18.491Z,1.73
2022-10-23T18:43:45.417Z,1.95
2022-10-23T18:46:15.189Z,1.83
2022-10-23T18:48:43.958Z,1.90
2022-10-23T18:51:17.113Z,2.60
2022-10-23T18:53:46.704Z,1.85
2022-10-23T18:56:22.260Z,1.80
2022-10-23T18:58:50.530Z,2.20
2022-10-23T19:01:18.384Z,1.70
2022-10-23T19:03:45.222Z,2.30
2022-10-23T19:06:11.938Z,2.50
2022-10-23T19:08:40.004Z,2.00
2022-10-23T19:11:07.994Z,2.20
2022-10-23T19:13:39.132Z,2.05
2022-10-23T19:16:15.858Z,2.25
2022-10-23T19:18:47.224Z,1.98
2022-10-23T19:21:14.097Z,1.75
2022-10-23T19:23:41.893Z,1.58
2022-10-23T19:26:12.354Z,1.55
2022-10-23T19:28:44.905Z,1.90
2022-10-23T19:31:14.729Z,2.42
2022-10-23T19:33:41.427Z,1.35
2022-10-23T19:36:12.610Z,2.17
2022-10-23T19:38:41.545Z,1.90
2022-10-23T19:41:08.377Z,1.98
2022-10-23T19:43:39.183Z,2.40
2022-10-23T19:46:09.497Z,1.67
2022-10-23T19:48:42.539Z,1.98
2022-10-23T19:51:09.466Z,1.45
2022-10-23T19:53:36.317Z,1.98
2022-10-23T19:56:05.555Z,1.85
2022-10-23T19:58:32.345Z,2.08
2022-10-23T20:00:58.899Z,1.45
2022-10-23T20:03:25.762Z,2.20
2022-10-23T20:05:52.260Z,1.73
2022-10-23T20:08:18.757Z,2.17
2022-10-23T20:10:46.995Z,1.50
2022-10-23T20:13:19.921Z,1.80
2022-10-23T20:15:46.772Z,1.60
2022-10-23T20:18:13.134Z,1.77
2022-10-23T20:20:41.391Z,1.73
2022-10-23T20:23:08.237Z,1.45
2022-10-23T20:25:34.781Z,2.05
2022-10-23T20:28:01.203Z,1.58
2022-10-23T20:30:27.714Z,1.48
2022-10-23T20:32:54.299Z,1.77
2022-10-23T20:35:20.693Z,2.10
2022-10-23T20:37:47.369Z,1.95
2022-10-23T20:40:13.830Z,1.30
2022-10-23T20:42:40.299Z,1.42
2022-10-23T20:45:10.034Z,1.90
2022-10-23T20:47:36.446Z,1.70
2022-10-23T20:50:03.390Z,1.52
2022-10-23T20:55:03.687Z,1.85
2022-10-23T20:57:30.143Z,1.90
2022-10-23T20:59:57.450Z,2.00
2022-10-23T21:02:27.323Z,1.50
2022-10-23T21:04:53.832Z,1.70
2022-10-23T21:07:21.242Z,1.88
2022-10-23T21:09:48.845Z,1.63
2022-10-23T21:12:21.893Z,1.80
2022-10-23T21:14:50.636Z,1.35
2022-10-23T21:17:18.045Z,2.35
2022-10-23T21:19:45.029Z,2.22
2022-10-23T21:22:13.043Z,2.08
2022-10-23T21:24:39.812Z,1.80
2022-10-23T21:27:06.358Z,1.48
2022-10-23T21:30:14.886Z,1.85
2022-10-23T21:32:41.300Z,2.28
2022-10-23T21:35:08.587Z,1.80
2022-10-23T21:37:35.162Z,2.28
2022-10-23T21:40:01.614Z,1.77
2022-10-23T21:44:59.579Z,1.75
2022-10-23T21:47:26.671Z,1.92
2022-10-23T21:49:53.161Z,2.72
2022-10-23T21:52:19.966Z,1.70
2022-10-23T21:54:52.473Z,1.75
2022-10-23T21:57:19.040Z,2.00
2022-10-23T21:59:45.741Z,2.30
2022-10-23T22:02:12.677Z,1.60
2022-10-23T22:04:39.877Z,1.65
2022-10-23T22:07:07.032Z,2.00
2022-10-23T22:09:34.067Z,2.47
2022-10-23T22:12:01.803Z,1.60
2022-10-23T22:14:28.690Z,1.83
2022-10-23T22:16:55.124Z,2.10
2022-10-23T22:19:22.655Z,1.88
2022-10-23T22:21:50.339Z,1.40
2022-10-23T22:24:17.616Z,1.38
2022-10-23T22:26:51.088Z,1.65
2022-10-23T22:29:20.098Z,1.90
2022-10-23T22:31:48.882Z,1.50
2022-10-23T22:34:47.851Z,1.95
2022-10-23T22:37:11.137Z,1.63
2022-10-23T22:39:38.390Z,1.90
2022-10-23T22:42:04.894Z,1.63
2022-10-23T22:44:31.315Z,1.60
2022-10-23T22:46:57.747Z,1.60
2022-10-23T22:49:25.059Z,1.60
2022-10-23T22:51:51.452Z,2.10
2022-10-23T22:54:17.888Z,2.10
2022-10-23T22:56:44.313Z,2.35
2022-10-23T22:59:10.742Z,1.80
2022-10-23T23:01:43.108Z,1.40
2022-10-23T23:06:57.907Z,1.70
2022-10-23T23:09:27.089Z,1.38
2022-10-23T23:11:53.759Z,1.55
2022-10-23T23:14:23.710Z,1.08
2022-10-23T23:16:52.536Z,2.03
2022-10-23T23:19:23.590Z,1.88
2022-10-23T23:21:50.551Z,1.70
2022-10-23T23:24:17.245Z,3.00
2022-10-23T23:26:43.694Z,1.77
2022-10-23T23:29:10.164Z,2.20
2022-10-23T23:31:36.692Z,1.58
2022-10-23T23:34:03.354Z,1.67
2022-10-23T23:36:29.957Z,2.33
2022-10-23T23:38:57.954Z,1.75
2022-10-23T23:41:26.090Z,1.55
2022-10-23T23:43:57.626Z,1.50
2022-10-23T23:46:32.872Z,2.08
2022-10-23T23:48:59.310Z,1.75
2022-10-23T23:51:26.604Z,1.65
2022-10-23T23:53:53.358Z,1.50
2022-10-23T23:56:20.469Z,1.50
2022-10-23T23:58:47.236Z,1.40
